Time;durP1;ratioP1;P1;durP2;ratioP2;P2;SDS_P1;SDS_P2;PMS_P1;PMS_P2;Temp;Humidity;BMP_temperature;BMP_pressure;BME280_temperature;BME280_humidity;BME280_pressure;Samples;Min_cycle;Max_cycle;Signal;HPM_P1;HPM_P2
2023/03/16 00:02:23;;;;;;;4.00;2.20;;;;;;;;;;5088385;28;20107;-61
2023/03/16 00:04:50;;;;;;;2.70;1.77;;;;;;;;;;5093425;28;20020;-59
2023/03/16 00:07:17;;;;;;;3.43;1.80;;;;;;;;;;5094242;28;20099;-60
2023/03/16 00:09:43;;;;;;;7.07;2.93;;;;;;;;;;5094578;28;20028;-61
2023/03/16 00:12:17;;;;;;;6.57;2.40;;;;;;;;;;5094303;28;20412;-61
2023/03/16 00:14:46;;;;;;;4.63;2.60;;;;;;;;;;5094182;28;20021;-61
2023/03/16 00:17:17;;;;;;;2.77;2.23;;;;;;;;;;5089351;28;20039;-61
2023/03/16 00:19:50;;;;;;;2.17;1.47;;;;;;;;;;5089198;28;20054;-60
2023/03/16 00:22:17;;;;;;;1.77;1.37;;;;;;;;;;5089181;28;20031;-60
2023/03/16 00:24:43;;;;;;;5.23;1.50;;;;;;;;;;5088966;28;20044;-60
2023/03/16 00:27:13;;;;;;;1.37;1.00;;;;;;;;;;5092402;28;20020;-60
2023/03/16 00:29:45;;;;;;;1.83;1.37;;;;;;;;;;5092386;28;20093;-60
2023/03/16 00:32:22;;;;;;;3.03;1.47;;;;;;;;;;5093290;28;20036;-60
2023/03/16 00:34:50;;;;;;;2.07;1.43;;;;;;;;;;5092855;28;20032;-60
2023/03/16 00:37:18;;;;;;;3.07;1.50;;;;;;;;;;5093744;28;20077;-59
2023/03/16 00:39:45;;;;;;;2.87;1.50;;;;;;;;;;5087811;28;20024;-59
2023/03/16 00:42:13;;;;;;;1.93;1.13;;;;;;;;;;5087167;28;20378;-59
2023/03/16 00:44:43;;;;;;;1.80;1.33;;;;;;;;;;5088352;28;20016;-59
2023/03/16 00:47:13;;;;;;;1.30;0.97;;;;;;;;;;5088037;28;20072;-61
2023/03/16 00:49:41;;;;;;;5.03;1.83;;;;;;;;;;5091961;28;20341;-59
2023/03/16 00:52:08;;;;;;;4.37;1.63;;;;;;;;;;5093713;28;20050;-60
2023/03/16 00:54:35;;;;;;;2.47;1.70;;;;;;;;;;5093661;28;20028;-60
2023/03/16 00:57:02;;;;;;;2.03;1.33;;;;;;;;;;5093602;28;20031;-60
2023/03/16 00:59:31;;;;;;;1.77;1.03;;;;;;;;;;5093123;28;20508;-60
2023/03/16 01:01:58;;;;;;;1.50;1.03;;;;;;;;;;5088726;28;20355;-60
2023/03/16 01:04:25;;;;;;;2.63;1.50;;;;;;;;;;5088050;28;20057;-60
2023/03/16 01:06:51;;;;;;;2.30;1.27;;;;;;;;;;5088205;28;20036;-61
2023/03/16 01:09:19;;;;;;;1.30;1.00;;;;;;;;;;5088153;28;20039;-60
2023/03/16 01:11:50;;;;;;;2.20;1.33;;;;;;;;;;5091657;28;20023;-60
2023/03/16 01:14:16;;;;;;;3.20;2.10;;;;;;;;;;5093426;28;20053;-61
2023/03/16 01:16:44;;;;;;;4.60;2.13;;;;;;;;;;5093102;28;20047;-60
2023/03/16 01:19:12;;;;;;;3.70;2.03;;;;;;;;;;5093020;28;20027;-60
2023/03/16 01:21:39;;;;;;;2.50;1.77;;;;;;;;;;5093238;28;20374;-60
2023/03/16 01:24:06;;;;;;;5.90;2.73;;;;;;;;;;5089410;28;20016;-62
2023/03/16 01:26:32;;;;;;;1.00;0.90;;;;;;;;;;5088136;28;20032;-60
2023/03/16 01:28:59;;;;;;;4.13;1.97;;;;;;;;;;5087656;28;20058;-60
2023/03/16 01:31:28;;;;;;;5.33;2.50;;;;;;;;;;5087836;28;20542;-60
2023/03/16 01:33:54;;;;;;;2.67;2.13;;;;;;;;;;5090835;28;20020;-60
2023/03/16 01:36:21;;;;;;;2.73;2.07;;;;;;;;;;5092501;28;20099;-60
2023/03/16 01:38:48;;;;;;;2.70;1.97;;;;;;;;;;5093029;28;20020;-60
2023/03/16 01:41:15;;;;;;;3.17;2.00;;;;;;;;;;5081416;28;20043;-60
2023/03/16 01:43:42;;;;;;;6.37;2.90;;;;;;;;;;5093025;28;20370;-60
2023/03/16 01:46:17;;;;;;;5.80;2.57;;;;;;;;;;5089631;28;20103;-59
2023/03/16 01:49:02;;;;;;;2.35;1.77;;;;;;;;;;5087500;28;20028;-60
2023/03/16 01:51:28;;;;;;;;;;;;;;;;;;5087369;28;20138;-60
2023/03/16 01:54:01;;;;;;;2.53;1.93;;;;;;;;;;5087612;28;19904;-60
2023/03/16 01:56:37;;;;;;;1.93;1.60;;;;;;;;;;5090588;28;20032;-60
2023/03/16 01:59:07;;;;;;;2.57;1.93;;;;;;;;;;5092394;28;20024;-60
2023/03/16 02:01:34;;;;;;;2.93;1.73;;;;;;;;;;5092128;28;20012;-60
2023/03/16 02:04:23;;;;;;;2.10;1.53;;;;;;;;;;5092751;28;20051;-60
2023/03/16 02:06:51;;;;;;;3.17;2.20;;;;;;;;;;5084827;28;20417;-60
2023/03/16 02:09:19;;;;;;;2.80;1.97;;;;;;;;;;5088387;28;20384;-59
2023/03/16 02:11:47;;;;;;;3.77;2.27;;;;;;;;;;5087358;28;20490;-59
2023/03/16 02:14:16;;;;;;;5.40;1.83;;;;;;;;;;5089200;28;20489;-58
2023/03/16 02:16:43;;;;;;;4.07;2.60;;;;;;;;;;5087947;28;20067;-58
2023/03/16 02:19:18;;;;;;;5.73;2.30;;;;;;;;;;5091100;28;20021;-59
2023/03/16 02:21:58;;;;;;;2.17;1.67;;;;;;;;;;5092450;28;20027;-59
2023/03/16 02:24:25;;;;;;;6.40;2.17;;;;;;;;;;5092217;28;20466;-60
2023/03/16 02:27:00;;;;;;;3.87;2.20;;;;;;;;;;5092409;28;20103;-60
2023/03/16 02:29:45;;;;;;;2.92;2.25;;;;;;;;;;5092511;28;20034;-60
2023/03/16 02:32:12;;;;;;;3.72;2.90;;;;;;;;;;5087389;28;20031;-58
2023/03/16 02:34:39;;;;;;;3.23;2.50;;;;;;;;;;5088067;28;20024;-58
2023/03/16 02:37:07;;;;;;;6.03;2.50;;;;;;;;;;5089487;28;20034;-58
2023/03/16 02:39:33;;;;;;;3.43;2.60;;;;;;;;;;5090223;28;20031;-59
2023/03/16 02:42:00;;;;;;;4.07;2.63;;;;;;;;;;5095450;28;20493;-58
2023/03/16 02:44:32;;;;;;;4.50;2.37;;;;;;;;;;5096393;28;20042;-58
2023/03/16 02:47:01;;;;;;;3.10;1.83;;;;;;;;;;5095805;28;20032;-58
2023/03/16 02:49:38;;;;;;;3.20;2.27;;;;;;;;;;5094664;28;20103;-58
2023/03/16 02:52:05;;;;;;;8.40;2.40;;;;;;;;;;5096332;28;20020;-58
2023/03/16 02:54:32;;;;;;;3.30;2.27;;;;;;;;;;5090839;28;20032;-59
2023/03/16 02:56:59;;;;;;;3.70;2.00;;;;;;;;;;5089965;28;20036;-58
2023/03/16 02:59:35;;;;;;;3.20;2.30;;;;;;;;;;5089377;28;20039;-58
2023/03/16 03:02:01;;;;;;;3.80;2.37;;;;;;;;;;5090533;28;20054;-58
2023/03/16 03:04:28;;;;;;;3.90;2.53;;;;;;;;;;5097743;28;20032;-58
2023/03/16 03:07:00;;;;;;;4.57;2.53;;;;;;;;;;5098108;28;20103;-58
2023/03/16 03:09:27;;;;;;;4.90;3.37;;;;;;;;;;5098167;28;20085;-58
2023/03/16 03:11:54;;;;;;;4.33;2.47;;;;;;;;;;5098506;28;20095;-59
2023/03/16 03:14:20;;;;;;;9.03;4.40;;;;;;;;;;5097514;28;20114;-58
2023/03/16 03:16:47;;;;;;;6.63;3.03;;;;;;;;;;5094179;28;20093;-58
2023/03/16 03:19:14;;;;;;;6.23;2.83;;;;;;;;;;5094226;28;20111;-59
2023/03/16 03:21:41;;;;;;;12.90;2.70;;;;;;;;;;5093425;28;20024;-58
2023/03/16 03:24:08;;;;;;;3.83;2.50;;;;;;;;;;5092692;28;20024;-60
2023/03/16 03:26:36;;;;;;;3.47;2.37;;;;;;;;;;5096930;28;20024;-59
2023/03/16 03:29:04;;;;;;;4.00;2.70;;;;;;;;;;5097291;28;20526;-58
2023/03/16 03:31:30;;;;;;;4.33;3.00;;;;;;;;;;5096956;28;20155;-58
2023/03/16 03:33:57;;;;;;;4.57;2.53;;;;;;;;;;5097309;28;20028;-58
2023/03/16 03:36:24;;;;;;;3.33;2.53;;;;;;;;;;5096808;28;20032;-59
2023/03/16 03:38:53;;;;;;;2.80;2.30;;;;;;;;;;5091265;28;20074;-59
2023/03/16 03:41:21;;;;;;;3.90;2.97;;;;;;;;;;5090553;28;20537;-59
2023/03/16 03:43:50;;;;;;;10.03;3.37;;;;;;;;;;5090714;28;20024;-58
2023/03/16 03:46:17;;;;;;;4.47;3.47;;;;;;;;;;5090350;28;20024;-59
2023/03/16 03:48:43;;;;;;;5.30;3.63;;;;;;;;;;5094047;28;20457;-58
2023/03/16 03:51:10;;;;;;;6.77;3.17;;;;;;;;;;5094944;28;20024;-58
2023/03/16 03:53:40;;;;;;;5.10;3.53;;;;;;;;;;5094261;28;20028;-59
2023/03/16 03:56:07;;;;;;;5.03;3.53;;;;;;;;;;5094611;28;20032;-59
2023/03/16 03:58:33;;;;;;;5.87;2.87;;;;;;;;;;5094474;28;20496;-58
2023/03/16 04:01:02;;;;;;;6.63;3.40;;;;;;;;;;5089755;28;20027;-59
2023/03/16 04:03:29;;;;;;;3.37;2.17;;;;;;;;;;5089538;28;20043;-58
2023/03/16 04:05:56;;;;;;;5.77;2.93;;;;;;;;;;5088841;28;20028;-59
2023/03/16 04:08:23;;;;;;;4.80;3.93;;;;;;;;;;5088922;28;20042;-59
2023/03/16 04:10:50;;;;;;;6.60;3.80;;;;;;;;;;5092549;28;20024;-58
2023/03/16 04:13:16;;;;;;;4.97;2.87;;;;;;;;;;5094132;28;20051;-58
2023/03/16 04:15:45;;;;;;;5.40;3.10;;;;;;;;;;5094311;28;20040;-58
2023/03/16 04:18:12;;;;;;;8.37;3.33;;;;;;;;;;5094045;28;20043;-59
2023/03/16 04:20:39;;;;;;;26.43;4.30;;;;;;;;;;5094436;28;20020;-59
2023/03/16 04:23:06;;;;;;;4.27;2.87;;;;;;;;;;5090323;28;20081;-59
2023/03/16 04:25:33;;;;;;;5.77;4.33;;;;;;;;;;5088983;28;20103;-58
2023/03/16 04:28:00;;;;;;;7.67;5.10;;;;;;;;;;5088710;28;20446;-59
2023/03/16 04:30:29;;;;;;;9.50;3.93;;;;;;;;;;5088488;28;20022;-59
2023/03/16 04:32:56;;;;;;;4.90;3.40;;;;;;;;;;5091963;28;20031;-58
2023/03/16 04:35:23;;;;;;;3.97;2.80;;;;;;;;;;5093928;28;20173;-58
2023/03/16 04:37:49;;;;;;;4.13;2.77;;;;;;;;;;5094161;28;20024;-59
2023/03/16 04:40:16;;;;;;;5.00;3.30;;;;;;;;;;5094023;28;20023;-58
2023/03/16 04:42:44;;;;;;;4.07;2.80;;;;;;;;;;5093545;28;20111;-58
2023/03/16 04:45:11;;;;;;;4.00;2.93;;;;;;;;;;5090155;28;20028;-59
2023/03/16 04:47:38;;;;;;;5.03;2.70;;;;;;;;;;5088445;28;20035;-58
2023/03/16 04:50:05;;;;;;;6.70;2.63;;;;;;;;;;5088121;28;20035;-59
2023/03/16 04:52:31;;;;;;;3.47;2.73;;;;;;;;;;5087653;28;20092;-58
2023/03/16 04:54:58;;;;;;;3.07;2.40;;;;;;;;;;5091134;28;20028;-58
2023/03/16 04:57:25;;;;;;;3.87;2.43;;;;;;;;;;5093754;28;20024;-59
2023/03/16 04:59:52;;;;;;;4.90;3.00;;;;;;;;;;5093266;28;20024;-59
2023/03/16 05:02:19;;;;;;;15.77;3.60;;;;;;;;;;5093247;28;20488;-59
2023/03/16 05:04:46;;;;;;;4.53;3.27;;;;;;;;;;5093372;28;20549;-59
2023/03/16 05:07:12;;;;;;;4.90;2.33;;;;;;;;;;5090739;28;20499;-59
2023/03/16 05:09:40;;;;;;;1.90;1.43;;;;;;;;;;5087910;28;20035;-58
2023/03/16 05:12:07;;;;;;;3.57;2.67;;;;;;;;;;5087554;28;20049;-59
2023/03/16 05:14:35;;;;;;;3.43;2.43;;;;;;;;;;5088024;28;20055;-59
2023/03/16 05:17:05;;;;;;;5.40;2.87;;;;;;;;;;5089688;28;20032;-59
2023/03/16 05:19:32;;;;;;;3.80;2.27;;;;;;;;;;5093361;28;20034;-59
2023/03/16 05:21:59;;;;;;;3.57;2.67;;;;;;;;;;5093009;28;20024;-58
2023/03/16 05:24:26;;;;;;;3.50;2.73;;;;;;;;;;5092304;28;20032;-58
2023/03/16 05:26:53;;;;;;;2.70;2.07;;;;;;;;;;5093043;28;20578;-58
2023/03/16 05:29:19;;;;;;;4.13;2.33;;;;;;;;;;5090535;28;20077;-59
2023/03/16 05:31:46;;;;;;;5.30;2.93;;;;;;;;;;5087875;28;20078;-58
2023/03/16 05:34:13;;;;;;;3.97;2.83;;;;;;;;;;5086007;28;20079;-58
2023/03/16 05:36:39;;;;;;;3.60;2.60;;;;;;;;;;5087745;28;20354;-59
2023/03/16 05:39:07;;;;;;;6.90;3.30;;;;;;;;;;5088843;28;20039;-58
2023/03/16 05:41:34;;;;;;;5.60;2.40;;;;;;;;;;5092805;28;20493;-58
2023/03/16 05:44:00;;;;;;;1.90;1.60;;;;;;;;;;5092674;28;20736;-58
2023/03/16 05:46:27;;;;;;;2.93;2.03;;;;;;;;;;5092688;28;20115;-59
2023/03/16 05:51:25;;;;;;;2.77;2.03;;;;;;;;;;5009129;28;20144;-65
2023/03/16 05:53:55;;;;;;;1.97;1.63;;;;;;;;;;5012592;28;20105;-65
2023/03/16 05:56:25;;;;;;;3.80;2.80;;;;;;;;;;5012882;28;20041;-65
2023/03/16 05:58:52;;;;;;;4.37;2.07;;;;;;;;;;5012641;28;20435;-65
2023/03/16 06:01:19;;;;;;;2.40;1.93;;;;;;;;;;5011444;28;20037;-67
2023/03/16 06:03:50;;;;;;;1.90;1.33;;;;;;;;;;5007393;28;20030;-66
2023/03/16 06:06:17;;;;;;;4.03;2.13;;;;;;;;;;5007259;28;20100;-67
2023/03/16 06:08:44;;;;;;;3.70;1.90;;;;;;;;;;5007462;28;20067;-67
2023/03/16 06:11:11;;;;;;;1.87;1.53;;;;;;;;;;5007104;28;20033;-67
2023/03/16 06:13:38;;;;;;;1.80;1.47;;;;;;;;;;5012753;28;20053;-67
2023/03/16 06:16:10;;;;;;;2.30;1.67;;;;;;;;;;5012376;28;20426;-66
2023/03/16 06:18:37;;;;;;;3.73;2.33;;;;;;;;;;5012485;28;20041;-65
2023/03/16 06:21:03;;;;;;;5.33;2.07;;;;;;;;;;5012172;28;20050;-66
2023/03/16 06:23:30;;;;;;;3.50;2.10;;;;;;;;;;5011006;28;20025;-65
2023/03/16 06:25:58;;;;;;;2.03;1.63;;;;;;;;;;5007325;28;20044;-65
2023/03/16 06:28:25;;;;;;;1.90;1.50;;;;;;;;;;5007277;28;20034;-65
2023/03/16 06:30:55;;;;;;;3.20;2.33;;;;;;;;;;5006982;28;20033;-66
2023/03/16 06:33:22;;;;;;;2.40;1.70;;;;;;;;;;5007084;28;20037;-67
2023/03/16 06:35:50;;;;;;;2.47;1.63;;;;;;;;;;5012032;28;20104;-65
2023/03/16 06:38:17;;;;;;;2.47;1.73;;;;;;;;;;5015923;28;20353;-67
2023/03/16 06:40:43;;;;;;;2.73;2.00;;;;;;;;;;5016225;28;20100;-67
2023/03/16 06:43:10;;;;;;;1.93;1.33;;;;;;;;;;5016310;28;20333;-67
2023/03/16 06:45:37;;;;;;;3.03;2.23;;;;;;;;;;5015275;28;20384;-67
2023/03/16 06:48:05;;;;;;;5.63;2.27;;;;;;;;;;5010626;28;20412;-66
2023/03/16 06:50:32;;;;;;;2.17;1.70;;;;;;;;;;5010883;28;20037;-65
2023/03/16 06:52:59;;;;;;;2.57;1.67;;;;;;;;;;5010408;28;20030;-65
2023/03/16 06:55:25;;;;;;;2.33;1.53;;;;;;;;;;5010790;28;20030;-65
2023/03/16 06:57:52;;;;;;;2.87;1.93;;;;;;;;;;5015517;28;20037;-65
2023/03/16 07:00:19;;;;;;;3.20;2.00;;;;;;;;;;5015906;28;20021;-66
2023/03/16 07:02:45;;;;;;;3.20;1.93;;;;;;;;;;5015875;28;20045;-67
2023/03/16 07:05:12;;;;;;;15.57;3.07;;;;;;;;;;5015777;28;20022;-65
2023/03/16 07:07:42;;;;;;;10.40;4.50;;;;;;;;;;5015853;28;20018;-66
2023/03/16 07:10:10;;;;;;;5.03;3.40;;;;;;;;;;5010076;28;20034;-65
2023/03/16 07:12:37;;;;;;;5.67;4.00;;;;;;;;;;5010253;28;20089;-65
2023/03/16 07:15:04;;;;;;;3.23;2.20;;;;;;;;;;5010270;28;20030;-66
2023/03/16 07:17:31;;;;;;;3.37;2.33;;;;;;;;;;5010341;28;20026;-66
2023/03/16 07:19:57;;;;;;;5.37;2.23;;;;;;;;;;5014964;28;20040;-66
2023/03/16 07:22:24;;;;;;;11.00;3.07;;;;;;;;;;5015296;28;20376;-66
2023/03/16 07:24:56;;;;;;;3.23;1.73;;;;;;;;;;5015259;28;20018;-66
2023/03/16 07:27:23;;;;;;;6.37;3.30;;;;;;;;;;5015489;28;20076;-66
2023/03/16 07:29:53;;;;;;;8.30;3.97;;;;;;;;;;5015481;28;20034;-66
2023/03/16 07:32:20;;;;;;;6.27;3.27;;;;;;;;;;5009857;28;20036;-66
2023/03/16 07:34:47;;;;;;;5.67;4.07;;;;;;;;;;5009780;28;20029;-66
2023/03/16 07:37:15;;;;;;;7.77;4.03;;;;;;;;;;5009935;28;20025;-67
2023/03/16 07:39:42;;;;;;;7.93;5.00;;;;;;;;;;5009879;28;20025;-66
2023/03/16 07:42:09;;;;;;;9.73;5.07;;;;;;;;;;5014479;28;20546;-66
2023/03/16 07:44:35;;;;;;;8.30;5.23;;;;;;;;;;5014895;28;20137;-67
2023/03/16 07:47:02;;;;;;;9.00;5.33;;;;;;;;;;5014867;28;20029;-66
2023/03/16 07:49:29;;;;;;;5.73;4.53;;;;;;;;;;5014854;28;20026;-66
2023/03/16 07:51:55;;;;;;;12.03;6.20;;;;;;;;;;5015069;28;20168;-66
2023/03/16 07:54:23;;;;;;;11.03;7.63;;;;;;;;;;5010050;28;20041;-66
2023/03/16 07:56:50;;;;;;;14.03;8.80;;;;;;;;;;5009051;28;20046;-66
2023/03/16 07:59:16;;;;;;;20.77;12.67;;;;;;;;;;5009401;28;20030;-66
2023/03/16 08:01:45;;;;;;;15.53;10.53;;;;;;;;;;5009526;28;20033;-66
2023/03/16 08:04:12;;;;;;;15.07;8.10;;;;;;;;;;5013296;28;20025;-66
2023/03/16 08:06:38;;;;;;;10.27;6.07;;;;;;;;;;5014545;28;20030;-66
2023/03/16 08:09:05;;;;;;;9.93;6.47;;;;;;;;;;5014691;28;20564;-66
2023/03/16 08:11:32;;;;;;;13.53;7.83;;;;;;;;;;5014637;28;20030;-66
2023/03/16 08:13:58;;;;;;;15.43;7.90;;;;;;;;;;5014179;28;20064;-66
2023/03/16 08:16:26;;;;;;;14.67;8.00;;;;;;;;;;5009837;28;20036;-66
2023/03/16 08:18:53;;;;;;;5.73;4.63;;;;;;;;;;5008971;28;20084;-66
2023/03/16 08:21:20;;;;;;;14.73;6.63;;;;;;;;;;5009321;28;20055;-65
2023/03/16 08:23:51;;;;;;;5.97;3.87;;;;;;;;;;5008894;28;20030;-66
2023/03/16 08:26:18;;;;;;;5.60;4.10;;;;;;;;;;5013115;28;20025;-66
2023/03/16 08:28:45;;;;;;;5.13;3.67;;;;;;;;;;5013909;28;20033;-65
2023/03/16 08:31:12;;;;;;;5.37;3.80;;;;;;;;;;5014274;28;20018;-66
2023/03/16 08:33:40;;;;;;;6.00;3.57;;;;;;;;;;5014341;28;20516;-65
2023/03/16 08:36:07;;;;;;;2.67;2.20;;;;;;;;;;5014084;28;20041;-65
2023/03/16 08:38:34;;;;;;;3.53;2.47;;;;;;;;;;5009522;28;20648;-65
2023/03/16 08:41:01;;;;;;;3.97;2.37;;;;;;;;;;5008620;28;20049;-66
2023/03/16 08:43:27;;;;;;;2.67;2.00;;;;;;;;;;5008725;28;20533;-66
2023/03/16 08:45:54;;;;;;;3.37;2.20;;;;;;;;;;5008520;28;20030;-66
2023/03/16 08:48:21;;;;;;;4.37;2.57;;;;;;;;;;5011771;28;20080;-65
2023/03/16 08:50:48;;;;;;;5.17;2.90;;;;;;;;;;5013805;28;20124;-66
2023/03/16 08:53:14;;;;;;;4.03;3.00;;;;;;;;;;5013911;28;20018;-65
2023/03/16 08:55:41;;;;;;;5.93;2.83;;;;;;;;;;5013701;28;20065;-66
2023/03/16 08:58:09;;;;;;;3.67;2.30;;;;;;;;;;5013691;28;20477;-65
2023/03/16 09:00:36;;;;;;;3.27;2.13;;;;;;;;;;5008704;28;20064;-66
2023/03/16 09:03:03;;;;;;;2.50;1.83;;;;;;;;;;5008352;28;20033;-66
2023/03/16 09:05:30;;;;;;;7.27;2.10;;;;;;;;;;5008243;28;20032;-66
2023/03/16 09:07:57;;;;;;;2.73;2.20;;;;;;;;;;5008177;28;20033;-66
2023/03/16 09:10:24;;;;;;;2.13;1.70;;;;;;;;;;5011132;28;20054;-65
2023/03/16 09:12:52;;;;;;;4.13;2.37;;;;;;;;;;5013246;28;20464;-66
2023/03/16 09:15:19;;;;;;;3.47;2.43;;;;;;;;;;5013322;28;20037;-65
2023/03/16 09:17:46;;;;;;;2.27;1.43;;;;;;;;;;5012959;28;20029;-66
2023/03/16 09:20:19;;;;;;;4.03;2.37;;;;;;;;;;5013389;28;20022;-65
2023/03/16 09:22:47;;;;;;;2.77;2.10;;;;;;;;;;5009928;28;20108;-66
2023/03/16 09:25:14;;;;;;;1.30;1.13;;;;;;;;;;5007773;28;20030;-65
2023/03/16 09:27:41;;;;;;;3.13;2.10;;;;;;;;;;5007679;28;20266;-65
2023/03/16 09:30:09;;;;;;;1.97;1.50;;;;;;;;;;5007965;28;20026;-65
2023/03/16 09:32:36;;;;;;;3.90;1.83;;;;;;;;;;5010077;28;20625;-65
2023/03/16 09:35:05;;;;;;;1.67;1.37;;;;;;;;;;5012859;28;20295;-66
2023/03/16 09:37:32;;;;;;;1.43;1.20;;;;;;;;;;5012652;28;20278;-65
2023/03/16 09:39:59;;;;;;;1.77;1.50;;;;;;;;;;5013064;28;20025;-65
2023/03/16 09:42:25;;;;;;;2.07;1.37;;;;;;;;;;5013039;28;20056;-65
2023/03/16 09:45:10;;;;;;;3.27;2.47;;;;;;;;;;5009669;28;20271;-65
2023/03/16 09:47:37;;;;;;;1.92;1.67;;;;;;;;;;4988107;28;20268;-65
2023/03/16 09:50:07;;;;;;;1.57;1.23;;;;;;;;;;4987878;28;20030;-66
2023/03/16 09:52:47;;;;;;;2.87;2.17;;;;;;;;;;4987961;28;20300;-65
2023/03/16 09:55:26;;;;;;;1.73;1.50;;;;;;;;;;4991877;28;20743;-66
2023/03/16 09:57:54;;;;;;;1.60;1.30;;;;;;;;;;4999524;28;20275;-65
2023/03/16 10:00:22;;;;;;;2.13;1.57;;;;;;;;;;5012678;28;20401;-65
2023/03/16 10:03:03;;;;;;;3.57;1.97;;;;;;;;;;5012776;28;20251;-65
2023/03/16 10:05:31;;;;;;;1.50;1.30;;;;;;;;;;5012489;28;20256;-66
2023/03/16 10:08:04;;;;;;;6.77;2.50;;;;;;;;;;5007399;28;20260;-66
2023/03/16 10:10:40;;;;;;;3.63;2.67;;;;;;;;;;5007014;28;20838;-65
2023/03/16 10:13:07;;;;;;;;;;;;;;;;;;5007799;28;20259;-65
2023/03/16 10:15:35;;;;;;;2.37;1.87;;;;;;;;;;5007192;28;19914;-66
2023/03/16 10:18:06;;;;;;;4.10;1.70;;;;;;;;;;5011892;28;20268;-66
2023/03/16 10:20:34;;;;;;;1.40;1.30;;;;;;;;;;5012473;28;20255;-65
2023/03/16 10:23:08;;;;;;;2.13;1.60;;;;;;;;;;5012210;28;20345;-65
2023/03/16 10:25:47;;;;;;;2.20;1.53;;;;;;;;;;5012498;28;20256;-66
2023/03/16 10:28:15;;;;;;;1.80;1.57;;;;;;;;;;5011555;28;20260;-65
2023/03/16 10:30:42;;;;;;;2.40;1.53;;;;;;;;;;5007263;28;20282;-65
2023/03/16 10:33:27;;;;;;;1.77;1.57;;;;;;;;;;5007110;28;20329;-65
2023/03/16 10:36:12;;;;;;;1.85;1.10;;;;;;;;;;5007198;28;20310;-66
2023/03/16 10:38:45;;;;;;;4.78;2.00;;;;;;;;;;5008357;28;20021;-65
2023/03/16 10:41:19;;;;;;;2.47;1.60;;;;;;;;;;5012203;28;20065;-66
2023/03/16 10:43:56;;;;;;;1.67;1.30;;;;;;;;;;5012348;28;20256;-65
2023/03/16 10:46:24;;;;;;;3.33;2.47;;;;;;;;;;5012098;28;20270;-65
2023/03/16 10:49:01;;;;;;;2.33;1.73;;;;;;;;;;5011758;28;20255;-65
2023/03/16 10:51:32;;;;;;;2.17;1.60;;;;;;;;;;5009113;28;20274;-65
2023/03/16 10:54:09;;;;;;;2.93;2.00;;;;;;;;;;5007029;28;20286;-65
2023/03/16 10:56:37;;;;;;;2.27;1.77;;;;;;;;;;5006824;28;20378;-66
2023/03/16 10:59:14;;;;;;;2.17;1.73;;;;;;;;;;5005680;28;20268;-66
2023/03/16 11:01:44;;;;;;;5.20;2.10;;;;;;;;;;5009935;28;20264;-65
2023/03/16 11:04:14;;;;;;;2.20;1.70;;;;;;;;;;5012244;28;20252;-65
2023/03/16 11:06:47;;;;;;;4.40;2.00;;;;;;;;;;5012183;28;20247;-65
2023/03/16 11:09:18;;;;;;;1.13;0.97;;;;;;;;;;5012086;28;20338;-65
2023/03/16 11:11:48;;;;;;;4.30;2.00;;;;;;;;;;5011834;28;20649;-65
2023/03/16 11:14:15;;;;;;;3.83;2.10;;;;;;;;;;5007429;28;20274;-65
2023/03/16 11:16:42;;;;;;;3.77;2.50;;;;;;;;;;5006658;28;21136;-65
2023/03/16 11:19:24;;;;;;;3.47;3.13;;;;;;;;;;5006643;28;20263;-65
2023/03/16 11:21:57;;;;;;;3.60;3.03;;;;;;;;;;5006265;28;20256;-65
2023/03/16 11:24:27;;;;;;;2.90;1.70;;;;;;;;;;5014381;28;20267;-65
2023/03/16 11:26:55;;;;;;;4.57;2.70;;;;;;;;;;5015294;28;20358;-65
2023/03/16 11:29:22;;;;;;;2.83;2.23;;;;;;;;;;5015580;28;20606;-65
2023/03/16 11:31:52;;;;;;;2.90;2.17;;;;;;;;;;5015295;28;20753;-65
2023/03/16 11:34:21;;;;;;;4.43;3.20;;;;;;;;;;5015267;28;20251;-65
2023/03/16 11:36:50;;;;;;;3.40;2.30;;;;;;;;;;5010125;28;20288;-65
2023/03/16 11:39:20;;;;;;;3.30;2.30;;;;;;;;;;5010068;28;20267;-65
2023/03/16 11:41:47;;;;;;;2.50;2.13;;;;;;;;;;5009734;28;20326;-65
2023/03/16 11:44:21;;;;;;;4.17;2.47;;;;;;;;;;5009812;28;20294;-65
2023/03/16 11:47:01;;;;;;;3.08;2.42;;;;;;;;;;5014582;28;20317;-65
2023/03/16 11:49:48;;;;;;;4.07;2.33;;;;;;;;;;5014982;28;20036;-65
2023/03/16 11:52:34;;;;;;;3.43;2.40;;;;;;;;;;5014776;28;20350;-65
2023/03/16 11:55:01;;;;;;;2.00;1.77;;;;;;;;;;5014607;28;20275;-65
2023/03/16 11:57:31;;;;;;;3.60;2.17;;;;;;;;;;5013255;28;20259;-65
2023/03/16 12:00:27;;;;;;;3.47;2.73;;;;;;;;;;5009584;28;20259;-65
2023/03/16 12:03:12;;;;;;;1.95;1.70;;;;;;;;;;5009216;28;20742;-65
2023/03/16 12:05:41;;;;;;;3.67;2.22;;;;;;;;;;5009291;28;20076;-65
2023/03/16 12:08:08;;;;;;;2.63;2.10;;;;;;;;;;5012103;28;20376;-65
2023/03/16 12:10:41;;;;;;;4.73;2.70;;;;;;;;;;5014700;28;20279;-65
2023/03/16 12:13:10;;;;;;;2.13;1.53;;;;;;;;;;5014189;28;20583;-65
2023/03/16 12:15:41;;;;;;;3.17;2.03;;;;;;;;;;5014790;28;20359;-65
2023/03/16 12:18:15;;;;;;;6.00;2.30;;;;;;;;;;5014618;28;20614;-65
2023/03/16 12:20:52;;;;;;;3.37;2.57;;;;;;;;;;5010488;28;20358;-65
2023/03/16 12:23:21;;;;;;;1.70;1.40;;;;;;;;;;5008673;28;20255;-65
2023/03/16 12:25:49;;;;;;;1.90;1.70;;;;;;;;;;5009191;28;20283;-65
2023/03/16 12:28:26;;;;;;;6.63;2.23;;;;;;;;;;5008936;28;20255;-65
2023/03/16 12:30:57;;;;;;;1.97;1.50;;;;;;;;;;5012961;28;20255;-65
2023/03/16 12:33:27;;;;;;;1.97;1.63;;;;;;;;;;5014038;28;20274;-65
2023/03/16 12:36:12;;;;;;;3.43;2.30;;;;;;;;;;5013735;28;20295;-65
2023/03/16 12:38:48;;;;;;;5.57;2.20;;;;;;;;;;5014153;28;20263;-65
2023/03/16 12:41:23;;;;;;;5.70;2.60;;;;;;;;;;5013840;28;20032;-65
2023/03/16 12:44:05;;;;;;;4.17;2.43;;;;;;;;;;5008333;28;20263;-65
2023/03/16 12:46:47;;;;;;;1.70;1.53;;;;;;;;;;5008640;28;20259;-65
2023/03/16 12:49:14;;;;;;;2.90;2.43;;;;;;;;;;5008635;28;20263;-65
2023/03/16 12:51:42;;;;;;;2.53;1.97;;;;;;;;;;5009277;28;20305;-66
2023/03/16 12:54:25;;;;;;;4.53;2.37;;;;;;;;;;5014129;28;20346;-65
2023/03/16 12:56:53;;;;;;;4.77;2.03;;;;;;;;;;5013612;28;20370;-65
2023/03/16 12:59:21;;;;;;;2.60;1.73;;;;;;;;;;5013727;28;20256;-65
2023/03/16 13:01:49;;;;;;;1.33;1.20;;;;;;;;;;5013517;28;20298;-65
2023/03/16 13:04:35;;;;;;;3.40;2.77;;;;;;;;;;5010942;28;20271;-65
2023/03/16 13:07:04;;;;;;;1.43;1.30;;;;;;;;;;5008404;28;20720;-65
2023/03/16 13:09:31;;;;;;;4.30;2.80;;;;;;;;;;5008033;28;20271;-65
2023/03/16 13:12:03;;;;;;;2.70;2.17;;;;;;;;;;5008429;28;20689;-65
2023/03/16 13:14:30;;;;;;;6.57;3.43;;;;;;;;;;5009775;28;20279;-65
2023/03/16 13:17:05;;;;;;;6.73;4.20;;;;;;;;;;5013280;28;20284;-65
2023/03/16 13:19:36;;;;;;;6.90;3.78;;;;;;;;;;5013488;28;20267;-65
2023/03/16 13:22:17;;;;;;;6.07;3.50;;;;;;;;;;5013383;28;20109;-65
2023/03/16 13:24:49;;;;;;;4.73;3.37;;;;;;;;;;5013012;28;20271;-65
2023/03/16 13:27:36;;;;;;;3.20;2.33;;;;;;;;;;5009229;28;20255;-65
2023/03/16 13:30:14;;;;;;;4.70;2.87;;;;;;;;;;4988100;28;20264;-66
2023/03/16 13:32:41;;;;;;;8.33;5.70;;;;;;;;;;5003186;28;20275;-66
2023/03/16 13:35:08;;;;;;;9.87;5.87;;;;;;;;;;5005352;28;20665;-66
2023/03/16 13:37:35;;;;;;;7.20;4.77;;;;;;;;;;5009992;28;20275;-66
2023/03/16 13:40:03;;;;;;;4.80;3.47;;;;;;;;;;5011436;28;20281;-66
2023/03/16 13:42:32;;;;;;;11.53;4.03;;;;;;;;;;5012765;28;20270;-66
2023/03/16 13:45:03;;;;;;;5.57;4.13;;;;;;;;;;5012657;28;20263;-66
2023/03/16 13:47:30;;;;;;;7.20;5.30;;;;;;;;;;5012174;28;20045;-66
2023/03/16 13:49:58;;;;;;;3.60;3.27;;;;;;;;;;5007839;28;20030;-66
2023/03/16 13:52:27;;;;;;;3.37;2.57;;;;;;;;;;5007481;28;20500;-66
2023/03/16 13:54:54;;;;;;;9.63;4.47;;;;;;;;;;5007090;28;20330;-66
2023/03/16 13:57:23;;;;;;;5.83;4.43;;;;;;;;;;5007090;28;20025;-67
2023/03/16 13:59:49;;;;;;;3.07;2.73;;;;;;;;;;5011612;28;20029;-66
2023/03/16 14:02:21;;;;;;;3.07;2.53;;;;;;;;;;5012434;28;20025;-67
2023/03/16 14:04:48;;;;;;;3.40;2.47;;;;;;;;;;5012462;28;20543;-67
2023/03/16 14:07:16;;;;;;;6.47;3.67;;;;;;;;;;5012708;28;20014;-66
2023/03/16 14:09:48;;;;;;;3.17;2.50;;;;;;;;;;5012313;28;20018;-67
2023/03/16 14:12:18;;;;;;;8.03;5.17;;;;;;;;;;5007342;28;20141;-67
2023/03/16 14:14:50;;;;;;;6.50;3.33;;;;;;;;;;5006982;28;20119;-67
2023/03/16 14:17:18;;;;;;;6.00;4.23;;;;;;;;;;5007162;28;20455;-66
2023/03/16 14:19:49;;;;;;;3.67;3.00;;;;;;;;;;5007146;28;20500;-65
2023/03/16 14:22:32;;;;;;;5.37;3.70;;;;;;;;;;5011765;28;20089;-66
2023/03/16 14:24:59;;;;;;;6.80;4.10;;;;;;;;;;5010863;28;20369;-67
2023/03/16 14:27:34;;;;;;;17.23;3.43;;;;;;;;;;5012372;28;20026;-66
2023/03/16 14:30:00;;;;;;;;;;;;;;;;;;5012692;28;20025;-66
2023/03/16 14:32:32;;;;;;;4.70;2.43;;;;;;;;;;5011038;28;19991;-66
2023/03/16 14:35:14;;;;;;;6.63;3.07;;;;;;;;;;5006575;28;20061;-66
2023/03/16 14:37:41;;;;;;;7.33;3.90;;;;;;;;;;5007195;28;20033;-66
2023/03/16 14:40:21;;;;;;;5.83;4.00;;;;;;;;;;5006883;28;20030;-67
2023/03/16 14:42:48;;;;;;;8.37;4.57;;;;;;;;;;5008383;28;20030;-67
2023/03/16 14:45:16;;;;;;;4.43;3.50;;;;;;;;;;5012459;28;20029;-67
2023/03/16 14:47:44;;;;;;;6.87;4.40;;;;;;;;;;5011371;28;20022;-65
2023/03/16 14:50:16;;;;;;;8.13;5.17;;;;;;;;;;5012237;28;20026;-67
2023/03/16 14:52:44;;;;;;;7.60;5.40;;;;;;;;;;5012200;28;20112;-67
2023/03/16 14:55:18;;;;;;;16.43;5.80;;;;;;;;;;5009974;28;20030;-67
2023/03/16 14:57:45;;;;;;;9.67;5.00;;;;;;;;;;5007738;28;20022;-67
2023/03/16 15:00:14;;;;;;;5.73;3.93;;;;;;;;;;5009681;28;20026;-68